createdAt,value
2018-03-21T00:00:04.269Z,83.64
2018-03-21T00:02:32.522Z,84.01
2018-03-21T00:05:00.782Z,84.84
2018-03-21T00:07:29.034Z,84.12
2018-03-21T00:09:57.291Z,84.24
2018-03-21T00:12:25.549Z,83.69
2018-03-21T00:14:53.802Z,83.91
2018-03-21T00:17:22.059Z,84.33
2018-03-21T00:19:50.323Z,84.86
2018-03-21T00:22:19.339Z,84.99
2018-03-21T00:24:47.602Z,85.06
2018-03-21T00:27:16.611Z,84.62
2018-03-21T00:29:44.875Z,84.37
2018-03-21T00:32:15.405Z,84.13
2018-03-21T00:34:43.656Z,83.86
2018-03-21T00:37:11.907Z,83.54
2018-03-21T00:39:40.168Z,82.94
2018-03-21T00:42:08.412Z,82.72
2018-03-21T00:44:36.673Z,83.29
2018-03-21T00:47:05.686Z,83.13
2018-03-21T00:49:33.939Z,83.22
2018-03-21T00:52:02.966Z,83.47
2018-03-21T00:54:31.224Z,84.06
2018-03-21T00:56:59.483Z,84.47
2018-03-21T00:59:28.518Z,84.21
2018-03-21T01:01:56.770Z,84.44
2018-03-21T01:04:25.026Z,84.67
2018-03-21T01:06:54.047Z,84.96
2018-03-21T01:09:22.327Z,84.58
2018-03-21T01:11:50.586Z,83.98
2018-03-21T01:14:18.838Z,84.31
2018-03-21T01:16:47.106Z,83.93
2018-03-21T01:19:15.353Z,84.53
2018-03-21T01:21:43.607Z,84.10
2018-03-21T01:24:11.871Z,84.52
2018-03-21T01:26:40.137Z,84.12
2018-03-21T01:29:09.151Z,83.83
2018-03-21T01:31:37.410Z,84.34
2018-03-21T01:34:05.691Z,84.40
2018-03-21T01:36:33.936Z,85.53
2018-03-21T01:39:02.187Z,84.94
2018-03-21T01:41:30.442Z,85.73
2018-03-21T01:43:58.704Z,85.25
2018-03-21T01:46:26.962Z,84.70
2018-03-21T01:48:55.211Z,84.55
2018-03-21T01:51:23.471Z,83.69
2018-03-21T01:53:51.732Z,82.74
2018-03-21T01:56:19.978Z,83.00
2018-03-21T01:58:48.234Z,84.25
2018-03-21T02:01:17.270Z,84.49
2018-03-21T02:03:45.527Z,84.87
2018-03-21T02:06:13.796Z,85.00
2018-03-21T02:08:42.044Z,84.96
2018-03-21T02:11:11.055Z,84.46
2018-03-21T02:13:39.314Z,84.77
2018-03-21T02:16:08.332Z,85.33
2018-03-21T02:18:36.580Z,84.70
2018-03-21T02:21:05.598Z,84.88
2018-03-21T02:23:33.865Z,84.39
2018-03-21T02:26:02.870Z,84.58
2018-03-21T02:28:31.135Z,83.80
2018-03-21T02:30:59.390Z,83.06
2018-03-21T02:33:27.642Z,83.19
2018-03-21T02:35:55.901Z,82.91
2018-03-21T02:38:24.156Z,83.20
2018-03-21T02:40:52.408Z,83.20
2018-03-21T02:43:21.432Z,83.36
2018-03-21T02:45:49.676Z,83.78
2018-03-21T02:48:18.707Z,83.81
2018-03-21T02:50:46.957Z,83.72
2018-03-21T02:53:15.203Z,83.54
2018-03-21T02:55:44.221Z,83.06
2018-03-21T02:58:12.472Z,83.67
2018-03-21T03:00:41.487Z,83.69
2018-03-21T03:03:09.756Z,83.17
2018-03-21T03:05:38.782Z,82.80
2018-03-21T03:08:07.034Z,82.70
2018-03-21T03:10:35.287Z,82.50
2018-03-21T03:13:04.310Z,82.27
2018-03-21T03:15:32.555Z,82.37
2018-03-21T03:18:01.579Z,82.57
2018-03-21T03:20:29.828Z,82.58
2018-03-21T03:22:58.858Z,82.67
2018-03-21T03:25:27.103Z,83.48
2018-03-21T03:27:56.112Z,83.82
2018-03-21T03:30:24.367Z,84.16
2018-03-21T03:32:53.383Z,84.34
2018-03-21T03:35:21.646Z,84.49
2018-03-21T03:37:49.898Z,84.58
2018-03-21T03:40:18.155Z,84.81
2018-03-21T03:42:46.403Z,85.69
2018-03-21T03:45:14.663Z,85.48
2018-03-21T03:47:42.911Z,85.92
2018-03-21T03:50:11.939Z,86.21
2018-03-21T03:52:40.187Z,86.01
2018-03-21T03:55:08.446Z,86.04
2018-03-21T03:57:36.708Z,86.20
2018-03-21T04:00:04.971Z,86.54
2018-03-21T04:02:33.219Z,86.14
2018-03-21T04:05:01.483Z,85.46
2018-03-21T04:07:29.738Z,86.17
2018-03-21T04:09:58.767Z,85.73
2018-03-21T04:12:27.019Z,86.10
2018-03-21T04:14:55.270Z,85.58
2018-03-21T04:17:24.294Z,85.75
2018-03-21T04:19:52.547Z,86.08
2018-03-21T04:22:21.561Z,86.13
2018-03-21T04:24:49.822Z,85.93
2018-03-21T04:27:18.842Z,85.80
2018-03-21T04:29:47.103Z,85.83
2018-03-21T04:32:15.358Z,85.50
2018-03-21T04:34:44.363Z,86.13
2018-03-21T04:37:12.633Z,86.01
2018-03-21T04:39:41.641Z,85.90
2018-03-21T04:42:09.909Z,86.20
2018-03-21T04:44:38.158Z,85.68
2018-03-21T04:47:07.072Z,85.40
2018-03-21T04:49:35.322Z,85.54
2018-03-21T04:52:03.574Z,83.89
2018-03-21T04:54:31.827Z,83.25
2018-03-21T04:57:00.087Z,82.92
2018-03-21T04:59:28.340Z,82.90
2018-03-21T05:01:57.409Z,82.78
2018-03-21T05:04:25.611Z,82.30
2018-03-21T05:06:54.639Z,82.52
2018-03-21T05:09:22.893Z,82.46
2018-03-21T05:11:51.149Z,82.69
2018-03-21T05:14:19.405Z,82.64
2018-03-21T05:16:47.680Z,82.78
2018-03-21T05:19:15.934Z,82.48
2018-03-21T05:21:44.193Z,82.52
2018-03-21T05:24:12.439Z,82.60
2018-03-21T05:26:40.689Z,82.66
2018-03-21T05:29:08.955Z,82.51
2018-03-21T05:31:37.281Z,82.67
2018-03-21T05:34:05.483Z,82.35
2018-03-21T05:36:33.738Z,82.16
2018-03-21T05:39:01.990Z,81.96
2018-03-21T05:41:31.010Z,81.99
2018-03-21T05:43:59.260Z,82.03
2018-03-21T05:46:28.271Z,81.91
2018-03-21T05:48:56.528Z,81.76
2018-03-21T05:51:25.598Z,81.69
2018-03-21T05:53:53.854Z,81.42
2018-03-21T05:56:22.104Z,81.50
2018-03-21T05:58:50.363Z,81.49
2018-03-21T06:01:18.607Z,81.22
2018-03-21T06:03:47.625Z,81.09
2018-03-21T06:06:15.891Z,81.16
2018-03-21T06:08:44.959Z,81.05
2018-03-21T06:11:13.165Z,80.96
2018-03-21T06:13:41.422Z,80.83
2018-03-21T06:16:09.662Z,80.71
2018-03-21T06:18:37.919Z,80.37
2018-03-21T06:21:06.167Z,80.71
2018-03-21T06:23:34.442Z,80.61
2018-03-21T06:26:02.688Z,80.49
2018-03-21T06:28:30.935Z,80.31
2018-03-21T06:30:59.197Z,80.43
2018-03-21T06:33:27.444Z,80.66
2018-03-21T06:35:55.696Z,79.82
2018-03-21T06:38:23.960Z,80.11
2018-03-21T06:40:52.215Z,80.47
2018-03-21T06:43:20.486Z,80.49
2018-03-21T06:45:48.735Z,80.48
2018-03-21T06:48:16.982Z,80.00
2018-03-21T06:50:46.017Z,80.07
2018-03-21T06:53:14.262Z,79.75
2018-03-21T06:55:42.524Z,79.52
2018-03-21T06:58:11.540Z,78.88
2018-03-21T07:00:39.792Z,78.44
2018-03-21T07:03:08.807Z,78.28
2018-03-21T07:05:37.064Z,77.91
2018-03-21T07:08:06.078Z,77.82
2018-03-21T07:10:34.346Z,77.62
2018-03-21T07:13:02.599Z,77.04
2018-03-21T07:18:40.237Z,76.82
2018-03-21T07:21:08.494Z,76.67
2018-03-21T07:23:37.511Z,76.87
2018-03-21T07:26:05.758Z,76.63
2018-03-21T07:28:34.792Z,76.21
2018-03-21T07:31:03.080Z,76.41
2018-03-21T07:33:32.062Z,76.00
2018-03-21T07:36:00.316Z,76.14
2018-03-21T07:38:28.567Z,76.37
2018-03-21T07:40:56.847Z,76.05
2018-03-21T07:43:25.105Z,75.92
2018-03-21T07:45:53.356Z,75.37
2018-03-21T07:48:21.616Z,75.22
2018-03-21T07:50:49.866Z,75.11
2018-03-21T07:53:18.139Z,74.78
2018-03-21T07:55:47.147Z,74.33
2018-03-21T07:58:15.411Z,73.98
2018-03-21T08:00:43.667Z,74.15
2018-03-21T08:03:12.692Z,73.73
2018-03-21T08:05:40.939Z,73.39
2018-03-21T08:08:09.966Z,73.16
2018-03-21T08:10:38.211Z,72.75
2018-03-21T08:13:07.246Z,72.29
2018-03-21T08:15:35.491Z,71.66
2018-03-21T08:18:04.508Z,70.91
2018-03-21T08:20:32.766Z,69.53
2018-03-21T08:23:01.011Z,70.16
2018-03-21T08:25:29.278Z,69.92
2018-03-21T08:27:57.598Z,70.25
2018-03-21T08:30:26.553Z,70.21
2018-03-21T08:32:54.799Z,69.77
2018-03-21T08:35:23.054Z,69.85
2018-03-21T08:37:51.307Z,69.98
2018-03-21T08:40:19.568Z,69.92
2018-03-21T08:42:48.587Z,69.44
2018-03-21T08:45:16.843Z,69.07
2018-03-21T08:47:45.860Z,68.68
2018-03-21T08:50:14.110Z,67.15
2018-03-21T08:52:43.127Z,67.78
2018-03-21T08:55:11.406Z,67.29
2018-03-21T08:57:39.650Z,66.10
2018-03-21T09:00:08.665Z,65.48
2018-03-21T09:02:36.926Z,63.75
2018-03-21T09:05:05.933Z,64.51
2018-03-21T09:07:34.190Z,64.94
2018-03-21T09:10:03.209Z,65.07
2018-03-21T09:12:31.467Z,64.48
2018-03-21T09:14:59.716Z,62.23
2018-03-21T09:17:27.999Z,62.52
2018-03-21T09:19:57.012Z,63.19
2018-03-21T09:22:26.039Z,61.79
2018-03-21T09:24:54.293Z,59.19
2018-03-21T09:27:22.553Z,60.60
2018-03-21T09:29:51.573Z,59.44
2018-03-21T09:32:19.827Z,59.07
2018-03-21T09:34:48.078Z,58.59
2018-03-21T09:37:16.334Z,58.55
2018-03-21T09:39:44.576Z,57.23
2018-03-21T09:42:12.826Z,58.59
2018-03-21T09:44:41.079Z,58.98
2018-03-21T09:47:10.105Z,58.36
2018-03-21T09:49:38.387Z,57.92
2018-03-21T09:52:06.651Z,56.81
2018-03-21T09:54:40.407Z,53.10
2018-03-21T09:57:08.678Z,50.75
2018-03-21T09:59:36.931Z,48.90
2018-03-21T10:02:05.179Z,50.24
2018-03-21T10:04:33.433Z,49.13
2018-03-21T10:07:01.683Z,49.39
2018-03-21T10:09:29.936Z,48.75
2018-03-21T10:11:58.189Z,47.30
2018-03-21T10:14:26.438Z,49.79
2018-03-21T10:16:55.451Z,48.36
2018-03-21T10:19:23.706Z,47.30
2018-03-21T10:21:52.728Z,46.26
2018-03-21T10:24:20.989Z,46.56
2018-03-21T10:26:49.997Z,48.55
2018-03-21T10:29:18.294Z,49.63
2018-03-21T10:31:47.267Z,47.02
2018-03-21T10:34:15.532Z,45.91
2018-03-21T10:36:43.806Z,46.59
2018-03-21T10:39:12.812Z,44.65
2018-03-21T10:41:41.069Z,44.99
2018-03-21T10:44:10.113Z,44.09
2018-03-21T10:46:38.364Z,45.88
2018-03-21T10:49:06.611Z,44.23
2018-03-21T10:51:34.863Z,45.00
2018-03-21T10:54:03.129Z,44.93
2018-03-21T10:56:31.381Z,45.39
2018-03-21T10:58:59.635Z,45.88
2018-03-21T11:01:33.342Z,44.72
2018-03-21T11:04:01.617Z,45.01
2018-03-21T11:06:29.902Z,43.55
2018-03-21T11:08:58.869Z,41.79
2018-03-21T11:11:27.894Z,41.73
2018-03-21T11:13:56.164Z,40.51
2018-03-21T11:16:25.154Z,40.67
2018-03-21T11:18:53.396Z,39.04
2018-03-21T11:21:22.410Z,38.47
2018-03-21T11:23:50.651Z,37.76
2018-03-21T11:26:18.907Z,38.38
2018-03-21T11:28:47.148Z,39.62
2018-03-21T11:31:15.406Z,34.49
2018-03-21T11:33:43.641Z,37.98
2018-03-21T11:36:11.889Z,36.97
2018-03-21T11:38:40.127Z,35.39
2018-03-21T11:41:08.374Z,35.65
2018-03-21T11:43:36.610Z,35.96
2018-03-21T11:46:04.861Z,37.13
2018-03-21T11:48:33.094Z,37.14
2018-03-21T11:51:01.347Z,36.17
2018-03-21T11:53:29.589Z,36.29
2018-03-21T11:55:57.863Z,35.72
2018-03-21T11:58:26.100Z,35.86
2018-03-21T12:00:54.338Z,33.41
2018-03-21T12:03:22.587Z,33.35
2018-03-21T12:05:50.826Z,34.33
2018-03-21T12:08:19.084Z,35.26
2018-03-21T12:10:47.327Z,33.38
2018-03-21T12:13:15.574Z,33.88
2018-03-21T12:15:44.583Z,32.28
2018-03-21T12:18:12.845Z,35.22
2018-03-21T12:20:41.852Z,34.94
2018-03-21T12:23:10.104Z,33.42
2018-03-21T12:25:39.107Z,33.20
2018-03-21T12:28:08.120Z,32.86
2018-03-21T12:30:36.362Z,31.34
2018-03-21T12:33:05.394Z,31.28
2018-03-21T12:35:33.634Z,31.20
2018-03-21T12:38:02.648Z,34.66
2018-03-21T12:40:30.902Z,31.84
2018-03-21T12:42:59.911Z,30.48
2018-03-21T12:45:28.934Z,33.59
2018-03-21T12:47:57.176Z,30.36
2018-03-21T12:50:26.201Z,30.42
2018-03-21T12:52:54.448Z,28.46
2018-03-21T12:55:23.468Z,30.89
2018-03-21T12:57:51.715Z,30.13
2018-03-21T13:00:20.728Z,28.19
2018-03-21T13:02:48.971Z,30.15
2018-03-21T13:05:17.983Z,31.67
2018-03-21T13:07:46.274Z,33.45
2018-03-21T13:10:14.484Z,31.69
2018-03-21T13:12:42.723Z,31.03
2018-03-21T13:15:10.979Z,32.15
2018-03-21T13:17:39.983Z,30.54
2018-03-21T13:20:08.244Z,30.74
2018-03-21T13:22:37.261Z,27.52
2018-03-21T13:25:05.508Z,28.56
2018-03-21T13:27:34.515Z,27.14
2018-03-21T13:30:02.764Z,26.21
2018-03-21T13:32:31.773Z,27.57
2018-03-21T13:35:00.833Z,27.57
2018-03-21T13:37:29.036Z,27.60
2018-03-21T13:39:58.051Z,25.06
2018-03-21T13:42:26.306Z,26.18
2018-03-21T13:44:55.316Z,26.65
2018-03-21T13:47:23.563Z,28.29
2018-03-21T13:49:51.799Z,26.83
2018-03-21T13:52:20.049Z,27.17
2018-03-21T13:54:48.287Z,26.60
2018-03-21T13:57:17.303Z,24.79
2018-03-21T13:59:45.542Z,25.90
2018-03-21T14:02:13.795Z,24.79
2018-03-21T14:04:42.043Z,26.52
2018-03-21T14:07:10.301Z,26.73
2018-03-21T14:09:39.311Z,25.38
2018-03-21T14:12:07.555Z,26.37
2018-03-21T14:14:36.562Z,26.75
2018-03-21T14:17:04.878Z,26.79
2018-03-21T14:19:33.834Z,24.71
2018-03-21T14:22:02.106Z,22.80
2018-03-21T14:24:31.123Z,24.68
2018-03-21T14:26:59.371Z,23.85
2018-03-21T14:29:28.394Z,27.34
2018-03-21T14:31:56.630Z,24.15
2018-03-21T14:34:25.648Z,24.97
2018-03-21T14:36:53.898Z,25.30
2018-03-21T14:39:22.923Z,24.05
2018-03-21T14:41:51.179Z,22.03
2018-03-21T14:44:20.203Z,23.72
2018-03-21T14:46:48.455Z,23.55
2018-03-21T14:49:16.714Z,21.25
2018-03-21T14:51:45.727Z,21.92
2018-03-21T14:54:13.985Z,21.29
2018-03-21T14:56:42.982Z,25.05
2018-03-21T14:59:12.000Z,27.65
2018-03-21T15:01:40.246Z,24.88
2018-03-21T15:04:09.262Z,26.39
2018-03-21T15:06:37.509Z,26.34
2018-03-21T15:09:06.522Z,24.95
2018-03-21T15:11:34.774Z,25.16
2018-03-21T15:14:03.019Z,24.66
2018-03-21T15:16:31.270Z,22.96
2018-03-21T15:18:59.545Z,22.90
2018-03-21T15:21:27.798Z,21.42
2018-03-21T15:23:56.807Z,23.27
2018-03-21T15:26:25.068Z,22.59
2018-03-21T15:28:53.336Z,21.11
2018-03-21T15:31:22.355Z,21.87
2018-03-21T15:33:50.613Z,22.08
2018-03-21T15:36:18.868Z,20.51
2018-03-21T15:38:47.889Z,21.72
2018-03-21T15:41:16.142Z,22.21
2018-03-21T15:43:45.158Z,21.39
2018-03-21T15:46:13.420Z,21.49
2018-03-21T15:48:41.672Z,24.21
2018-03-21T15:51:09.988Z,21.18
2018-03-21T15:53:38.182Z,23.56
2018-03-21T15:56:06.426Z,25.59
2018-03-21T15:58:34.671Z,24.84
2018-03-21T16:01:02.926Z,25.23
2018-03-21T16:03:31.941Z,25.01
2018-03-21T16:06:00.591Z,26.37
2018-03-21T16:08:28.804Z,25.34
2018-03-21T16:10:57.051Z,24.99
2018-03-21T16:13:25.294Z,25.67
2018-03-21T16:15:53.562Z,26.21
2018-03-21T16:18:21.805Z,26.23
2018-03-21T16:20:50.046Z,25.79
2018-03-21T16:23:18.307Z,27.02
2018-03-21T16:25:46.550Z,27.20
2018-03-21T16:28:14.825Z,27.24
2018-03-21T16:30:43.814Z,28.32
2018-03-21T16:33:12.832Z,28.81
2018-03-21T16:35:41.078Z,29.91
2018-03-21T16:38:10.103Z,28.24
2018-03-21T16:40:38.350Z,28.93
2018-03-21T16:43:06.603Z,33.86
2018-03-21T16:45:34.842Z,32.27
2018-03-21T16:48:03.097Z,34.41
2018-03-21T16:50:31.344Z,34.06
2018-03-21T16:53:00.360Z,33.58
2018-03-21T16:55:28.599Z,35.84
2018-03-21T16:57:56.848Z,37.79
2018-03-21T17:00:25.094Z,38.44
2018-03-21T17:02:53.350Z,39.58
2018-03-21T17:05:21.607Z,39.25
2018-03-21T17:07:50.624Z,37.74
2018-03-21T17:10:18.950Z,38.05
2018-03-21T17:12:47.142Z,38.33
2018-03-21T17:15:15.408Z,38.50
2018-03-21T17:17:43.659Z,38.95
2018-03-21T17:20:11.922Z,38.45
2018-03-21T17:22:40.188Z,38.65
2018-03-21T17:25:08.434Z,40.21
2018-03-21T17:27:37.446Z,39.50
2018-03-21T17:30:05.703Z,39.49
2018-03-21T17:32:34.727Z,39.80
2018-03-21T17:35:02.978Z,40.26
2018-03-21T17:37:31.227Z,41.08
2018-03-21T17:39:59.479Z,41.67
2018-03-21T17:42:27.729Z,41.66
2018-03-21T17:44:55.979Z,41.03
2018-03-21T17:47:24.994Z,40.80
2018-03-21T17:49:53.259Z,41.46
2018-03-21T17:52:21.503Z,41.67
2018-03-21T17:54:49.748Z,41.59
2018-03-21T17:57:18.012Z,41.47
2018-03-21T17:59:46.254Z,42.34
2018-03-21T18:02:14.514Z,41.41
2018-03-21T18:04:43.531Z,43.02
2018-03-21T18:07:11.783Z,41.55
2018-03-21T18:09:40.791Z,40.96
2018-03-21T18:12:09.042Z,41.37
2018-03-21T18:14:38.055Z,41.64
2018-03-21T18:17:06.311Z,40.56
2018-03-21T18:19:35.326Z,40.65
2018-03-21T18:22:03.590Z,41.19
2018-03-21T18:24:32.607Z,41.54
2018-03-21T18:27:00.860Z,42.17
2018-03-21T18:29:29.867Z,42.82
2018-03-21T18:31:58.119Z,42.85
2018-03-21T18:34:27.131Z,43.39
2018-03-21T18:36:56.154Z,43.67
2018-03-21T18:39:24.396Z,44.10
2018-03-21T18:41:53.402Z,44.76
2018-03-21T18:44:21.659Z,44.75
2018-03-21T18:46:50.667Z,44.47
2018-03-21T18:49:18.923Z,44.53
2018-03-21T18:51:47.929Z,43.77
2018-03-21T18:54:16.186Z,43.35
2018-03-21T18:56:45.198Z,42.83
2018-03-21T18:59:13.454Z,42.02
2018-03-21T19:01:42.467Z,42.82
2018-03-21T19:04:11.489Z,42.40
2018-03-21T19:06:39.726Z,41.11
2018-03-21T19:09:08.744Z,41.31
2018-03-21T19:11:36.987Z,40.15
2018-03-21T19:14:05.239Z,40.30
2018-03-21T19:16:33.483Z,39.80
2018-03-21T19:19:01.732Z,40.79
2018-03-21T19:21:30.743Z,39.52
2018-03-21T19:23:58.994Z,38.94
2018-03-21T19:26:28.002Z,38.98
2018-03-21T19:28:56.262Z,38.36
2018-03-21T19:31:25.269Z,38.77
2018-03-21T19:33:53.518Z,38.13
2018-03-21T19:36:22.543Z,39.09
2018-03-21T19:38:50.786Z,39.44
2018-03-21T19:41:19.803Z,39.33
2018-03-21T19:43:48.043Z,38.96
2018-03-21T19:46:16.298Z,38.85
2018-03-21T19:48:44.544Z,37.76
2018-03-21T19:51:12.802Z,37.56
2018-03-21T19:53:41.044Z,37.45
2018-03-21T19:56:09.305Z,37.86
2018-03-21T19:58:37.548Z,37.15
2018-03-21T20:01:05.802Z,37.27
2018-03-21T20:03:34.046Z,36.93
2018-03-21T20:06:02.307Z,36.28
2018-03-21T20:08:30.548Z,35.54
2018-03-21T20:10:58.801Z,35.54
2018-03-21T20:13:27.805Z,35.09
2018-03-21T20:15:56.054Z,35.51
2018-03-21T20:18:25.067Z,35.09
2018-03-21T20:20:53.511Z,35.71
2018-03-21T20:23:21.755Z,36.41
2018-03-21T20:25:50.100Z,34.98
2018-03-21T20:28:18.347Z,35.76
2018-03-21T20:30:46.618Z,35.33
2018-03-21T20:33:14.863Z,34.92
2018-03-21T20:35:43.108Z,35.95
2018-03-21T20:38:11.364Z,35.81
2018-03-21T20:40:40.428Z,35.18
2018-03-21T20:43:08.690Z,35.83
2018-03-21T20:45:36.937Z,35.81
2018-03-21T20:48:05.195Z,35.26
2018-03-21T20:50:33.438Z,35.67
2018-03-21T20:53:01.707Z,35.68
2018-03-21T20:55:29.959Z,35.71
2018-03-21T20:57:58.217Z,36.15
2018-03-21T21:00:26.460Z,36.63
2018-03-21T21:02:55.480Z,36.70
2018-03-21T21:05:23.725Z,36.54
2018-03-21T21:07:52.744Z,36.88
2018-03-21T21:10:20.986Z,36.61
2018-03-21T21:12:49.239Z,36.66
2018-03-21T21:15:17.479Z,36.62
2018-03-21T21:17:45.734Z,36.74
2018-03-21T21:20:14.734Z,37.04
2018-03-21T21:22:42.986Z,36.95
2018-03-21T21:25:12.001Z,37.22
2018-03-21T21:27:40.246Z,37.04
2018-03-21T21:30:09.260Z,37.65
2018-03-21T21:32:38.279Z,37.56
2018-03-21T21:35:06.528Z,37.58
2018-03-21T21:37:35.547Z,37.25
2018-03-21T21:40:03.807Z,37.53
2018-03-21T21:42:32.050Z,37.46
2018-03-21T21:45:00.324Z,37.46
2018-03-21T21:47:28.563Z,38.21
2018-03-21T21:49:56.803Z,37.64
2018-03-21T21:52:25.055Z,37.94
2018-03-21T21:54:53.299Z,37.66
2018-03-21T21:57:21.542Z,37.97
2018-03-21T21:59:49.801Z,37.88
2018-03-21T22:02:18.810Z,38.74
2018-03-21T22:04:47.055Z,38.87
2018-03-21T22:07:16.059Z,39.01
2018-03-21T22:09:45.079Z,38.90
2018-03-21T22:12:18.782Z,38.95
2018-03-21T22:14:47.053Z,39.40
2018-03-21T22:17:16.038Z,39.23
2018-03-21T22:19:44.299Z,39.68
2018-03-21T22:22:13.307Z,39.89
2018-03-21T22:24:41.554Z,39.93
2018-03-21T22:27:10.577Z,40.34
2018-03-21T22:29:38.826Z,40.15
2018-03-21T22:32:07.846Z,40.24
2018-03-21T22:34:36.110Z,40.55
2018-03-21T22:37:05.127Z,40.98
2018-03-21T22:39:33.377Z,41.09
2018-03-21T22:42:01.634Z,40.75
2018-03-21T22:44:30.771Z,40.63
2018-03-21T22:46:59.050Z,40.60
2018-03-21T22:49:28.050Z,40.78
2018-03-21T22:51:56.322Z,39.93
2018-03-21T22:54:24.589Z,40.65
2018-03-21T22:56:52.826Z,39.77
2018-03-21T22:59:21.849Z,40.57
2018-03-21T23:01:50.101Z,40.29
2018-03-21T23:04:19.130Z,39.41
2018-03-21T23:06:47.378Z,40.02
2018-03-21T23:09:16.404Z,40.30
2018-03-21T23:11:44.652Z,40.25
2018-03-21T23:14:13.681Z,39.99
2018-03-21T23:16:41.927Z,40.15
2018-03-21T23:19:10.179Z,40.39
2018-03-21T23:21:39.198Z,39.96
2018-03-21T23:24:07.446Z,39.41
2018-03-21T23:26:36.462Z,39.58
2018-03-21T23:29:04.738Z,39.23
2018-03-21T23:31:32.987Z,39.15
2018-03-21T23:34:01.227Z,39.10
2018-03-21T23:36:29.488Z,39.38
2018-03-21T23:38:57.739Z,40.28
2018-03-21T23:41:26.004Z,39.93
2018-03-21T23:43:55.008Z,39.33
2018-03-21T23:46:23.264Z,38.64
2018-03-21T23:48:52.271Z,38.57
2018-03-21T23:51:21.291Z,38.65
2018-03-21T23:53:49.542Z,39.03
2018-03-21T23:56:17.798Z,39.22
2018-03-21T23:58:46.823Z,39.06
